Terminal Aerodrome Forecast
Issued by NWS

Home | Current Version | Previous Version | Text Only | Print | Product List | Glossary On
Versions: 1 2 3 4 5 6 7 8 9 10 11 12 13 14
000
FTUS43 KMQT 121100 AAA
TAFSAW
TAF AMD
KSAW 121151Z 1212/1312 22008KT P6SM BKN020
     FM121700 02008G13KT P6SM BKN040
     FM122200 03008KT P6SM SCT040 BKN200
     FM130100 VRB03KT P6SM BKN080
     FM130900 27008KT P6SM BKN050
      AMD LTD TO CLD VIS AND WIND 1302/1310=

USA.gov is the U.S. government's official web portal to all federal, state and local government web resources and services.